Time;durP1;ratioP1;P1;durP2;ratioP2;P2;SDS_P1;SDS_P2;PMS_P1;PMS_P2;Temp;Humidity;BMP_temperature;BMP_pressure;BME280_temperature;BME280_humidity;BME280_pressure;Samples;Min_cycle;Max_cycle;Signal;HPM_P1;HPM_P2
2021/08/18 00:00:45;;;;;;;18.35;12.18;;;15.60;96.20;;;;;;5034028;28;20205;-76
2021/08/18 00:03:14;;;;;;;21.40;12.82;;;15.60;96.00;;;;;;5033539;28;20232;-76
2021/08/18 00:05:42;;;;;;;23.88;12.63;;;15.60;96.20;;;;;;5033025;28;20228;-77
2021/08/18 00:08:11;;;;;;;17.97;11.60;;;15.60;95.40;;;;;;5032870;28;20291;-78
2021/08/18 00:10:38;;;;;;;21.85;11.40;;;15.60;95.30;;;;;;5033540;28;20526;-75
2021/08/18 00:13:12;;;;;;;20.55;12.32;;;15.60;95.00;;;;;;5033471;28;20309;-75
2021/08/18 00:15:40;;;;;;;24.13;12.55;;;15.60;95.00;;;;;;5033617;28;20260;-76
2021/08/18 00:18:10;;;;;;;21.90;11.90;;;15.70;95.10;;;;;;5034334;28;20312;-75
2021/08/18 00:20:37;;;;;;;21.00;11.55;;;15.70;95.20;;;;;;5041390;28;20297;-76
2021/08/18 00:23:06;;;;;;;18.35;12.18;;;15.60;95.60;;;;;;5052073;28;20268;-76
2021/08/18 00:25:33;;;;;;;21.58;11.95;;;15.60;95.40;;;;;;5053971;28;20215;-75
2021/08/18 00:28:00;;;;;;;19.45;12.07;;;15.70;95.50;;;;;;5054165;28;20206;-76
2021/08/18 00:30:27;;;;;;;21.55;12.15;;;15.60;95.30;;;;;;5052272;28;20209;-76
2021/08/18 00:32:55;;;;;;;20.95;12.57;;;15.60;95.40;;;;;;5051981;28;20226;-76
2021/08/18 00:35:22;;;;;;;20.85;12.55;;;15.60;95.40;;;;;;5055014;28;20209;-76
2021/08/18 00:37:49;;;;;;;23.27;13.38;;;15.60;95.50;;;;;;5054897;28;20194;-76
2021/08/18 00:40:17;;;;;;;21.75;12.05;;;15.60;95.60;;;;;;5055651;28;20289;-76
2021/08/18 00:42:45;;;;;;;26.30;13.32;;;15.60;95.30;;;;;;5055676;28;20226;-76
2021/08/18 00:45:14;;;;;;;20.38;13.13;;;15.60;95.00;;;;;;5034002;28;20221;-77
2021/08/18 00:47:42;;;;;;;19.30;12.38;;;15.60;94.50;;;;;;5032751;28;20217;-76
2021/08/18 00:50:11;;;;;;;19.50;12.85;;;15.60;94.30;;;;;;5032488;28;20213;-76
2021/08/18 00:52:39;;;;;;;20.23;12.00;;;15.60;93.90;;;;;;5032579;28;20308;-75
2021/08/18 00:55:09;;;;;;;19.60;11.63;;;15.60;93.70;;;;;;5034406;28;20300;-76
2021/08/18 00:57:39;;;;;;;24.08;13.13;;;15.60;93.60;;;;;;5032045;28;20215;-77
2021/08/18 01:00:08;;;;;;;21.80;12.32;;;15.60;93.60;;;;;;5032336;28;20289;-75
2021/08/18 01:02:37;;;;;;;17.13;12.00;;;15.60;93.60;;;;;;5031932;28;20759;-76
2021/08/18 01:05:07;;;;;;;21.42;12.63;;;15.60;93.20;;;;;;5032301;28;20252;-77
2021/08/18 01:07:34;;;;;;;21.10;12.05;;;15.60;92.70;;;;;;5032267;28;20708;-75
2021/08/18 01:10:04;;;;;;;18.02;11.70;;;15.60;92.50;;;;;;5031322;28;20691;-75
2021/08/18 01:12:30;;;;;;;19.77;13.05;;;15.60;92.50;;;;;;5031772;28;20308;-75
2021/08/18 01:14:59;;;;;;;20.15;12.98;;;15.60;92.70;;;;;;5032056;28;20234;-75
2021/08/18 01:17:33;;;;;;;25.98;13.18;;;15.60;93.10;;;;;;5031898;28;20210;-76
2021/08/18 01:20:01;;;;;;;20.80;12.57;;;15.70;93.50;;;;;;5034983;28;20231;-76
2021/08/18 01:22:28;;;;;;;26.20;13.05;;;15.70;92.70;;;;;;5035226;28;20324;-76
2021/08/18 01:24:55;;;;;;;24.70;13.00;;;15.70;92.90;;;;;;5035419;28;20210;-76
2021/08/18 01:27:22;;;;;;;21.42;13.05;;;15.60;93.30;;;;;;5035494;28;20261;-76
2021/08/18 01:29:50;;;;;;;22.15;13.55;;;15.60;93.60;;;;;;5034946;28;20303;-75
2021/08/18 01:32:17;;;;;;;20.38;12.82;;;15.60;94.20;;;;;;5035323;28;20661;-76
2021/08/18 01:34:44;;;;;;;19.00;12.43;;;15.60;94.20;;;;;;5043784;28;20300;-76
2021/08/18 01:37:11;;;;;;;21.90;12.50;;;15.50;94.80;;;;;;5035604;28;20751;-75
2021/08/18 01:39:38;;;;;;;20.63;12.70;;;15.50;95.10;;;;;;5034813;28;20205;-75
2021/08/18 01:42:06;;;;;;;20.90;12.30;;;15.60;95.10;;;;;;5034967;28;20588;-76
2021/08/18 01:44:33;;;;;;;22.63;13.82;;;15.50;95.00;;;;;;5035472;28;20233;-76
2021/08/18 01:47:01;;;;;;;23.65;11.82;;;15.50;95.50;;;;;;5035452;28;20208;-75
2021/08/18 01:49:28;;;;;;;20.83;11.65;;;15.50;95.40;;;;;;5034766;28;20215;-75
2021/08/18 01:51:56;;;;;;;19.88;13.05;;;15.50;95.70;;;;;;5035042;28;20315;-75
2021/08/18 01:54:23;;;;;;;16.55;11.45;;;15.50;96.30;;;;;;5034903;28;20298;-75
2021/08/18 01:56:51;;;;;;;19.45;12.10;;;15.50;96.70;;;;;;5035088;28;20240;-76
2021/08/18 01:59:18;;;;;;;19.75;12.25;;;15.40;97.10;;;;;;5034428;28;20762;-76
2021/08/18 02:01:45;;;;;;;21.52;12.65;;;15.40;97.80;;;;;;5034506;28;20724;-75
2021/08/18 02:04:13;;;;;;;24.60;12.20;;;15.40;98.50;;;;;;5034541;28;20712;-76
2021/08/18 02:06:40;;;;;;;24.27;14.40;;;15.40;98.40;;;;;;5055075;28;20204;-75
2021/08/18 02:09:06;;;;;;;21.13;13.43;;;15.30;98.80;;;;;;5048056;28;20206;-74
2021/08/18 02:11:34;;;;;;;21.73;12.93;;;15.30;99.70;;;;;;5034564;28;20239;-77
2021/08/18 02:14:00;;;;;;;22.00;13.45;;;15.30;99.90;;;;;;5034197;28;20264;-75
2021/08/18 02:16:27;;;;;;;26.77;15.13;;;15.20;99.90;;;;;;5034560;28;20209;-75
2021/08/18 02:18:54;;;;;;;22.60;13.52;;;15.30;99.90;;;;;;5034050;28;20589;-75
2021/08/18 02:21:23;;;;;;;24.67;14.18;;;15.30;99.90;;;;;;5035254;28;20306;-76
2021/08/18 02:23:49;;;;;;;23.92;14.55;;;15.30;99.90;;;;;;5035462;28;20256;-77
2021/08/18 02:26:16;;;;;;;27.02;14.75;;;15.30;99.90;;;;;;5036280;28;20217;-76
2021/08/18 02:28:43;;;;;;;23.50;13.63;;;15.30;99.90;;;;;;5036264;28;20252;-77
2021/08/18 02:31:10;;;;;;;23.10;13.65;;;15.30;99.90;;;;;;5036503;28;20634;-76
2021/08/18 02:33:37;;;;;;;22.60;13.48;;;15.30;99.90;;;;;;5035623;28;20224;-76
2021/08/18 02:36:05;;;;;;;23.05;14.15;;;15.30;99.90;;;;;;5035400;28;20295;-76
2021/08/18 02:38:33;;;;;;;21.08;12.82;;;15.30;99.90;;;;;;5034074;28;20376;-76
2021/08/18 02:41:00;;;;;;;23.40;14.25;;;15.40;99.90;;;;;;5034083;28;20216;-76
2021/08/18 02:43:27;;;;;;;18.98;12.57;;;15.30;99.90;;;;;;5034021;28;20232;-76
2021/08/18 02:45:54;;;;;;;19.33;11.98;;;15.30;99.90;;;;;;5034332;28;20281;-76
2021/08/18 02:48:21;;;;;;;19.30;13.00;;;15.30;99.90;;;;;;5033851;28;20746;-77
2021/08/18 02:50:47;;;;;;;25.48;13.52;;;15.30;99.90;;;;;;5033909;28;20292;-75
2021/08/18 02:53:14;;;;;;;17.55;12.63;;;15.40;99.90;;;;;;5033611;28;20231;-77
2021/08/18 02:55:42;;;;;;;20.67;12.55;;;15.40;99.90;;;;;;5033972;28;20639;-76
2021/08/18 02:58:09;;;;;;;17.83;12.65;;;15.40;99.90;;;;;;5033903;28;20244;-75
2021/08/18 03:00:36;;;;;;;20.33;14.00;;;15.40;99.90;;;;;;5033697;28;20299;-76
2021/08/18 03:03:03;;;;;;;26.75;13.70;;;15.40;99.90;;;;;;5033516;28;20337;-76
2021/08/18 03:05:30;;;;;;;23.98;12.70;;;15.40;99.90;;;;;;5033909;28;20299;-75
2021/08/18 03:07:57;;;;;;;22.58;13.52;;;15.40;99.90;;;;;;5033747;28;20311;-75
2021/08/18 03:10:24;;;;;;;21.65;12.48;;;15.30;99.90;;;;;;5033603;28;20206;-76
2021/08/18 03:12:53;;;;;;;23.92;13.57;;;15.30;99.90;;;;;;5033412;28;20730;-75
2021/08/18 03:15:20;;;;;;;21.35;12.85;;;15.30;99.90;;;;;;5033489;28;20655;-77
2021/08/18 03:17:47;;;;;;;17.92;12.63;;;15.30;99.90;;;;;;5033795;28;20236;-76
2021/08/18 03:20:14;;;;;;;21.85;14.20;;;15.40;99.90;;;;;;5033725;28;20306;-76
2021/08/18 03:22:41;;;;;;;20.77;12.82;;;15.40;99.90;;;;;;5060274;23;20291;-77
2021/08/18 03:25:09;;;;;;;19.02;12.75;;;15.30;99.60;;;;;;5048076;28;20221;-78
2021/08/18 03:27:36;;;;;;;19.05;12.50;;;15.30;99.70;;;;;;5045413;28;20273;-78
2021/08/18 03:30:06;;;;;;;22.70;13.60;;;15.30;99.70;;;;;;5047547;28;20209;-78
2021/08/18 03:32:33;;;;;;;19.88;13.10;;;15.40;99.40;;;;;;5053227;28;20232;-79
2021/08/18 03:35:00;;;;;;;19.88;13.05;;;15.40;98.90;;;;;;5054147;28;20195;-78
2021/08/18 03:37:27;;;;;;;19.70;13.23;;;15.40;98.90;;;;;;5052208;28;20217;-80
2021/08/18 03:39:54;;;;;;;21.85;13.95;;;15.40;98.90;;;;;;5045400;28;20201;-79
2021/08/18 03:42:22;;;;;;;22.05;13.07;;;15.40;99.00;;;;;;5044150;28;20239;-79
2021/08/18 03:44:49;;;;;;;24.45;12.80;;;15.40;98.90;;;;;;5049279;28;20227;-79
2021/08/18 03:47:17;;;;;;;17.98;12.18;;;15.40;98.90;;;;;;5052208;28;20245;-79
2021/08/18 03:49:44;;;;;;;19.67;11.57;;;15.30;99.10;;;;;;5051714;28;20273;-79
2021/08/18 03:52:11;;;;;;;23.27;13.40;;;15.30;99.20;;;;;;5043662;28;20273;-80
2021/08/18 03:54:38;;;;;;;22.42;14.02;;;15.30;99.20;;;;;;5038024;28;20209;-79
2021/08/18 03:57:05;;;;;;;23.30;14.10;;;15.30;99.30;;;;;;5037890;28;20205;-79
2021/08/18 03:59:32;;;;;;;22.88;13.35;;;15.30;99.80;;;;;;5037600;28;20271;-78
2021/08/18 04:01:59;;;;;;;18.70;12.95;;;15.30;99.90;;;;;;5043736;28;20204;-80
2021/08/18 04:04:27;;;;;;;20.45;13.40;;;15.20;99.80;;;;;;5041152;28;20228;-79
2021/08/18 04:06:54;;;;;;;21.60;12.77;;;15.30;99.90;;;;;;5041376;28;20216;-79
2021/08/18 04:09:21;;;;;;;20.38;13.07;;;15.30;99.90;;;;;;5039092;28;20199;-79
2021/08/18 04:11:48;;;;;;;23.95;13.80;;;15.20;99.90;;;;;;5038975;28;20211;-79
2021/08/18 04:14:15;;;;;;;23.25;12.40;;;15.30;99.90;;;;;;5037883;28;20690;-78
2021/08/18 04:16:42;;;;;;;19.98;12.90;;;15.20;99.90;;;;;;5037996;28;20248;-79
2021/08/18 04:19:09;;;;;;;20.20;12.57;;;15.30;99.90;;;;;;5037322;28;20761;-79
2021/08/18 04:21:37;;;;;;;25.00;13.98;;;15.30;99.90;;;;;;5038032;28;20625;-79
2021/08/18 04:24:05;;;;;;;18.70;13.38;;;15.30;99.90;;;;;;5048737;28;20221;-78
2021/08/18 04:26:32;;;;;;;23.45;13.35;;;15.30;99.90;;;;;;5046910;28;20212;-79
2021/08/18 04:28:59;;;;;;;18.65;12.55;;;15.30;99.90;;;;;;5043979;28;20232;-78
2021/08/18 04:31:26;;;;;;;27.25;12.65;;;15.30;99.90;;;;;;5051439;28;20212;-77
2021/08/18 04:33:53;;;;;;;25.92;13.80;;;15.20;99.90;;;;;;5040294;28;20264;-78
2021/08/18 04:36:20;;;;;;;20.08;12.55;;;15.10;99.90;;;;;;5034318;28;20304;-79
2021/08/18 04:38:48;;;;;;;21.52;12.60;;;15.20;99.90;;;;;;5033455;28;20227;-79
2021/08/18 04:41:15;;;;;;;24.42;13.82;;;15.10;99.90;;;;;;5033631;28;20305;-79
2021/08/18 04:43:42;;;;;;;23.00;13.45;;;15.20;99.90;;;;;;5034339;28;20266;-79
2021/08/18 04:46:09;;;;;;;19.48;13.10;;;15.10;99.90;;;;;;5034538;28;20212;-79
2021/08/18 04:48:36;;;;;;;20.48;13.00;;;15.10;99.90;;;;;;5034716;28;20701;-79
2021/08/18 04:51:03;;;;;;;22.00;13.20;;;15.20;99.90;;;;;;5042124;28;20216;-77
2021/08/18 04:53:30;;;;;;;19.38;12.82;;;15.10;99.90;;;;;;5047679;28;20248;-79
2021/08/18 04:55:59;;;;;;;21.77;13.88;;;15.20;99.90;;;;;;5049026;28;20210;-79
2021/08/18 04:58:25;;;;;;;27.05;13.90;;;15.20;99.90;;;;;;5048981;28;20238;-79
2021/08/18 05:00:52;;;;;;;18.95;11.57;;;15.20;99.90;;;;;;5050064;28;20247;-78
2021/08/18 05:03:19;;;;;;;21.38;12.25;;;15.20;99.90;;;;;;5050002;28;20253;-79
2021/08/18 05:05:46;;;;;;;17.85;11.35;;;15.20;99.90;;;;;;5049519;28;20214;-78
2021/08/18 05:08:13;;;;;;;17.55;11.48;;;15.30;99.90;;;;;;5052197;28;20260;-79
2021/08/18 05:10:40;;;;;;;21.35;13.10;;;15.30;99.90;;;;;;5045778;28;20322;-79
2021/08/18 05:13:08;;;;;;;19.42;12.10;;;15.30;99.90;;;;;;5042414;28;20228;-80
2021/08/18 05:15:35;;;;;;;18.83;11.88;;;15.30;99.90;;;;;;5046124;28;20213;-79
2021/08/18 05:18:02;;;;;;;17.15;11.32;;;15.30;99.90;;;;;;5044662;28;20302;-79
2021/08/18 05:20:29;;;;;;;22.52;12.32;;;15.40;99.90;;;;;;5042150;28;20680;-79
2021/08/18 05:22:56;;;;;;;19.42;12.15;;;15.30;99.90;;;;;;5043935;28;20716;-79
2021/08/18 05:25:23;;;;;;;24.20;13.23;;;15.30;99.90;;;;;;5046806;28;20249;-80
2021/08/18 05:27:50;;;;;;;24.42;12.38;;;15.30;99.90;;;;;;5048694;28;20242;-78
2021/08/18 05:30:18;;;;;;;20.80;12.57;;;15.40;99.90;;;;;;5044402;28;20248;-79
2021/08/18 05:32:46;;;;;;;21.45;12.13;;;15.30;99.90;;;;;;5054683;28;20241;-78
2021/08/18 05:35:15;;;;;;;17.35;11.07;;;15.40;99.90;;;;;;5051988;28;20314;-79
2021/08/18 05:37:42;;;;;;;16.23;11.43;;;15.40;99.90;;;;;;5058387;28;20198;-78
2021/08/18 05:40:10;;;;;;;18.20;12.23;;;15.30;99.90;;;;;;5055355;28;20202;-80
2021/08/18 05:42:37;;;;;;;20.60;12.18;;;15.30;99.90;;;;;;5047806;28;20325;-79
2021/08/18 05:45:04;;;;;;;17.90;12.55;;;15.40;99.90;;;;;;5044789;28;20237;-79
2021/08/18 05:47:33;;;;;;;18.02;11.73;;;15.40;99.90;;;;;;5046853;28;20204;-79
2021/08/18 05:50:00;;;;;;;22.33;12.20;;;15.40;99.90;;;;;;5043282;28;20204;-79
2021/08/18 05:52:27;;;;;;;17.73;11.80;;;15.40;99.90;;;;;;5044774;28;20237;-79
2021/08/18 05:54:55;;;;;;;17.23;11.50;;;15.40;99.90;;;;;;5040845;28;20247;-79
2021/08/18 05:57:22;;;;;;;17.42;10.65;;;15.40;99.90;;;;;;5039110;28;20215;-83
2021/08/18 05:59:49;;;;;;;16.23;11.50;;;15.30;99.90;;;;;;5040037;28;20302;-80
2021/08/18 06:02:16;;;;;;;16.98;10.82;;;15.40;99.90;;;;;;5045113;28;20221;-80
2021/08/18 06:04:44;;;;;;;18.30;11.55;;;15.40;99.90;;;;;;5045118;28;20225;-79
2021/08/18 06:07:11;;;;;;;14.13;10.70;;;15.50;99.90;;;;;;5046086;28;20205;-79
2021/08/18 06:09:38;;;;;;;14.75;9.65;;;15.40;99.90;;;;;;5046966;28;20216;-80
2021/08/18 06:12:06;;;;;;;17.15;10.63;;;15.50;99.90;;;;;;5046541;28;20208;-80
2021/08/18 06:14:33;;;;;;;13.65;9.23;;;15.60;99.90;;;;;;5047434;28;20201;-80
2021/08/18 06:17:00;;;;;;;16.20;9.13;;;15.60;99.90;;;;;;5046302;28;20212;-80
2021/08/18 06:19:27;;;;;;;16.90;9.07;;;15.60;99.90;;;;;;5044985;28;20749;-78
2021/08/18 06:21:55;;;;;;;17.75;9.70;;;15.60;99.90;;;;;;5045549;28;20271;-78
2021/08/18 06:24:27;;;;;;;14.15;9.48;;;15.60;99.90;;;;;;5047498;28;20232;-79
2021/08/18 06:26:55;;;;;;;17.50;9.52;;;15.70;99.90;;;;;;5048095;28;20200;-78
2021/08/18 06:29:22;;;;;;;14.35;9.63;;;15.70;99.90;;;;;;5048198;28;20213;-79
2021/08/18 06:31:50;;;;;;;14.63;9.40;;;15.80;99.90;;;;;;5048113;28;20220;-79
2021/08/18 06:34:18;;;;;;;14.52;9.00;;;15.70;99.90;;;;;;5051079;28;20273;-79
2021/08/18 06:36:45;;;;;;;14.30;9.13;;;15.80;99.90;;;;;;5052180;28;20205;-79
2021/08/18 06:39:13;;;;;;;12.65;8.80;;;15.80;99.90;;;;;;5055727;28;20243;-79
2021/08/18 06:41:41;;;;;;;12.55;8.45;;;15.80;99.90;;;;;;5052144;28;20210;-78
2021/08/18 06:44:08;;;;;;;12.20;8.65;;;15.80;99.90;;;;;;5047334;28;20276;-79
2021/08/18 06:46:35;;;;;;;16.25;8.80;;;15.80;99.90;;;;;;5049624;28;20228;-78
2021/08/18 06:49:02;;;;;;;12.60;9.10;;;15.80;99.90;;;;;;5052314;28;20209;-78
2021/08/18 06:51:29;;;;;;;12.65;8.20;;;15.80;99.90;;;;;;5052303;28;20212;-79
2021/08/18 06:53:56;;;;;;;12.18;8.15;;;15.90;99.90;;;;;;5047994;28;20221;-78
2021/08/18 06:56:24;;;;;;;11.60;8.38;;;15.90;99.90;;;;;;5042522;28;20289;-77
2021/08/18 06:58:51;;;;;;;10.23;7.55;;;16.10;99.90;;;;;;5045831;28;20234;-78
2021/08/18 07:01:18;;;;;;;11.07;6.95;;;16.20;99.20;;;;;;5041904;28;20209;-77
2021/08/18 07:03:45;;;;;;;15.03;8.20;;;16.20;98.80;;;;;;5047620;28;20234;-80
2021/08/18 07:06:12;;;;;;;8.95;7.20;;;16.20;98.20;;;;;;5046595;28;20454;-79
2021/08/18 07:08:39;;;;;;;10.13;8.07;;;16.20;98.50;;;;;;5048276;28;20260;-80
2021/08/18 07:11:06;;;;;;;10.40;6.90;;;16.20;99.50;;;;;;5054451;28;20449;-78
2021/08/18 07:13:34;;;;;;;10.70;7.20;;;16.10;99.90;;;;;;5056075;28;20246;-79
2021/08/18 07:16:01;;;;;;;10.60;6.63;;;16.00;99.90;;;;;;5052871;28;20459;-79
2021/08/18 07:18:28;;;;;;;9.57;7.15;;;16.10;99.90;;;;;;5054752;28;20460;-78
2021/08/18 07:20:55;;;;;;;8.77;7.10;;;16.20;99.90;;;;;;5055165;28;20245;-77
2021/08/18 07:23:22;;;;;;;9.70;6.63;;;16.30;99.90;;;;;;5049235;28;20244;-80
2021/08/18 07:25:49;;;;;;;13.23;8.50;;;16.30;99.90;;;;;;5054143;28;20238;-79
2021/08/18 07:28:16;;;;;;;12.43;6.80;;;16.30;99.90;;;;;;5055336;28;20189;-78
2021/08/18 07:30:45;;;;;;;12.68;7.90;;;16.40;99.30;;;;;;5046660;28;20582;-79
2021/08/18 07:33:12;;;;;;;8.70;6.43;;;16.50;97.60;;;;;;5045841;28;20223;-80
2021/08/18 07:35:39;;;;;;;10.63;7.70;;;16.60;96.80;;;;;;5048726;28;20461;-78
2021/08/18 07:38:06;;;;;;;10.32;6.50;;;16.60;96.20;;;;;;5052477;28;20209;-79
2021/08/18 07:40:33;;;;;;;9.05;7.20;;;16.60;96.20;;;;;;5049763;28;20221;-79
2021/08/18 07:43:00;;;;;;;8.85;5.93;;;16.60;95.80;;;;;;5046517;28;20256;-79
2021/08/18 07:45:28;;;;;;;12.10;6.60;;;16.50;95.80;;;;;;5049802;28;20213;-77
2021/08/18 07:47:57;;;;;;;12.85;7.03;;;16.50;96.00;;;;;;5057334;28;20229;-78
2021/08/18 07:50:24;;;;;;;10.20;6.75;;;16.50;95.80;;;;;;5057507;28;20210;-78
2021/08/18 07:52:51;;;;;;;10.75;7.30;;;16.50;95.80;;;;;;5057528;28;20239;-78
2021/08/18 07:55:18;;;;;;;7.20;5.70;;;16.60;95.80;;;;;;5057740;28;20201;-78
2021/08/18 07:57:45;;;;;;;8.40;6.78;;;16.60;95.60;;;;;;5057599;28;20201;-77
2021/08/18 08:00:13;;;;;;;10.35;7.10;;;16.50;95.90;;;;;;5057484;28;20215;-77
2021/08/18 08:02:44;;;;;;;10.50;6.43;;;16.50;96.70;;;;;;5057127;28;20214;-78
2021/08/18 08:05:14;;;;;;;11.32;6.95;;;16.50;96.50;;;;;;5053027;28;20233;-78
2021/08/18 08:07:41;;;;;;;16.52;7.30;;;16.50;97.60;;;;;;5054763;28;20197;-78
2021/08/18 08:10:10;;;;;;;10.27;7.15;;;16.50;98.50;;;;;;5054903;28;20579;-78
2021/08/18 08:12:39;;;;;;;9.75;7.25;;;16.40;99.30;;;;;;5046465;28;20230;-79
2021/08/18 08:15:08;;;;;;;13.02;8.10;;;16.50;99.90;;;;;;5041164;28;20232;-78
2021/08/18 08:17:35;;;;;;;10.70;7.50;;;16.40;99.90;;;;;;5036825;28;20221;-78
2021/08/18 08:20:03;;;;;;;9.13;7.35;;;16.50;99.90;;;;;;5037288;28;20229;-78
2021/08/18 08:22:31;;;;;;;10.00;7.30;;;16.50;99.90;;;;;;5037249;28;20760;-78
2021/08/18 08:24:58;;;;;;;9.90;6.87;;;16.70;99.30;;;;;;5038995;28;20524;-79
2021/08/18 08:27:25;;;;;;;11.60;6.60;;;17.00;99.30;;;;;;5040943;28;20496;-80
2021/08/18 08:29:52;;;;;;;6.70;5.40;;;17.40;96.20;;;;;;5047586;28;20489;-80
2021/08/18 08:32:19;;;;;;;9.57;6.40;;;17.80;94.20;;;;;;5057678;28;20474;-77
2021/08/18 08:34:46;;;;;;;7.50;6.53;;;18.20;90.00;;;;;;5060699;28;20449;-78
2021/08/18 08:37:13;;;;;;;7.07;5.93;;;18.40;87.10;;;;;;5054769;28;20453;-79
2021/08/18 08:39:41;;;;;;;8.40;5.20;;;18.50;84.00;;;;;;5048387;28;20461;-81
2021/08/18 08:42:08;;;;;;;9.37;6.00;;;18.60;82.10;;;;;;5044564;28;20541;-81
2021/08/18 08:44:36;;;;;;;9.57;5.90;;;18.80;80.70;;;;;;5044367;28;20521;-80
2021/08/18 08:47:06;;;;;;;8.37;5.57;;;18.50;78.80;;;;;;5053192;28;20477;-80
2021/08/18 08:49:35;;;;;;;10.20;5.60;;;18.30;81.20;;;;;;5059805;28;20444;-78
2021/08/18 08:52:02;;;;;;;8.37;5.50;;;18.30;83.90;;;;;;5058792;28;20457;-79
2021/08/18 08:54:29;;;;;;;8.53;6.10;;;18.30;82.50;;;;;;5058483;28;20491;-78
2021/08/18 08:56:58;;;;;;;7.43;5.80;;;18.20;82.90;;;;;;5059620;28;20448;-78
2021/08/18 08:59:25;;;;;;;6.80;5.87;;;18.00;83.60;;;;;;5057571;28;20433;-79
2021/08/18 09:02:06;;;;;;;8.37;6.07;;;17.90;85.30;;;;;;5054964;28;20449;-79
2021/08/18 09:04:36;;;;;;;6.00;5.10;;;17.80;86.40;;;;;;5054469;28;20465;-78
2021/08/18 09:07:09;;;;;;;10.17;5.77;;;17.90;86.90;;;;;;5055080;28;20442;-78
2021/08/18 09:09:37;;;;;;;7.80;5.60;;;17.80;87.10;;;;;;5051840;28;20468;-78
2021/08/18 09:12:11;;;;;;;9.03;5.97;;;17.90;87.70;;;;;;5051269;28;20468;-79
2021/08/18 09:14:38;;;;;;;7.93;6.20;;;18.10;85.90;;;;;;5056386;28;20549;-79
2021/08/18 09:17:29;;;;;;;6.20;5.60;;;18.30;83.50;;;;;;5049043;28;20887;-79
2021/08/18 09:20:04;;;;;;;9.27;5.60;;;18.70;80.80;;;;;;5052414;28;20478;-79
2021/08/18 09:22:35;;;;;;;6.87;5.10;;;19.10;77.50;;;;;;5047875;28;20485;-78
2021/08/18 09:25:24;;;;;;;7.40;5.07;;;19.50;74.10;;;;;;5047974;28;20488;-79
2021/08/18 09:27:55;;;;;;;8.00;5.70;;;19.60;70.90;;;;;;5045751;28;20452;-80
2021/08/18 09:30:25;;;;;;;7.37;5.30;;;19.30;71.20;;;;;;5053993;28;20523;-78
2021/08/18 09:32:54;;;;;;;7.40;5.70;;;19.30;72.00;;;;;;5051447;28;20545;-80
2021/08/18 09:35:22;;;;;;;8.27;5.63;;;19.30;71.80;;;;;;5056572;28;20451;-79
2021/08/18 09:37:58;;;;;;;7.97;5.70;;;19.50;69.70;;;;;;5052516;28;20480;-77
2021/08/18 09:40:27;;;;;;;8.60;5.27;;;19.60;68.40;;;;;;5047488;28;20444;-79
2021/08/18 09:43:07;;;;;;;9.13;5.67;;;19.80;67.60;;;;;;5055027;28;20498;-78
2021/08/18 09:45:37;;;;;;;6.53;4.90;;;19.80;67.60;;;;;;5058611;28;20498;-78
2021/08/18 09:48:07;;;;;;;7.23;5.57;;;19.70;67.60;;;;;;5059594;28;20440;-78
2021/08/18 09:50:47;;;;;;;5.97;4.93;;;19.80;67.60;;;;;;5059389;28;20449;-78
2021/08/18 09:53:16;;;;;;;11.13;5.10;;;20.10;66.00;;;;;;5059211;28;20440;-77
2021/08/18 09:55:55;;;;;;;5.40;4.17;;;20.00;65.10;;;;;;5053671;28;20817;-80
2021/08/18 09:58:29;;;;;;;5.40;4.70;;;19.80;64.40;;;;;;5045203;28;20454;-79
2021/08/18 10:00:58;;;;;;;5.53;4.63;;;20.00;64.70;;;;;;5046336;28;20521;-78
2021/08/18 10:03:26;;;;;;;6.53;4.70;;;20.10;63.20;;;;;;5048502;28;20503;-79
2021/08/18 10:05:54;;;;;;;5.77;4.53;;;20.20;64.30;;;;;;5053642;28;20476;-79
2021/08/18 10:08:22;;;;;;;5.40;4.67;;;20.30;62.60;;;;;;5056111;28;20483;-80
2021/08/18 10:10:50;;;;;;;6.63;4.90;;;20.20;62.90;;;;;;5056868;28;20413;-79
2021/08/18 10:13:18;;;;;;;4.80;3.93;;;19.90;63.30;;;;;;5056960;28;20475;-78
2021/08/18 10:15:46;;;;;;;6.90;5.13;;;20.00;64.10;;;;;;5058049;28;20516;-77
2021/08/18 10:18:26;;;;;;;4.87;4.23;;;19.90;64.10;;;;;;5058587;28;20414;-78
2021/08/18 10:20:57;;;;;;;7.07;4.60;;;19.90;64.60;;;;;;5058398;28;20459;-78
2021/08/18 10:23:41;;;;;;;6.53;4.17;;;20.00;64.30;;;;;;5053362;28;20462;-79
2021/08/18 10:26:08;;;;;;;6.43;4.83;;;20.20;63.70;;;;;;5048886;28;20481;-81
2021/08/18 10:29:01;;;;;;;6.23;5.03;;;20.20;63.60;;;;;;5042252;28;20557;-78
2021/08/18 10:32:07;;;;;;;5.07;4.57;;;20.60;63.30;;;;;;5040364;28;20500;-79
2021/08/18 10:34:39;;;;;;;6.23;4.93;;;20.80;60.30;;;;;;4961862;29;20461;-80
2021/08/18 10:37:34;;;;;;;6.27;4.33;;;20.90;59.40;;;;;;4972963;28;20500;-79
2021/08/18 10:40:15;;;;;;;5.40;4.00;;;21.20;59.70;;;;;;4944946;28;20445;-78
2021/08/18 10:42:44;;;;;;;6.03;4.93;;;21.50;57.20;;;;;;4978412;28;20556;-81
2021/08/18 10:45:39;;;;;;;4.60;4.10;;;21.80;56.10;;;;;;4965457;29;20450;-80
2021/08/18 10:48:09;;;;;;;6.33;4.40;;;22.10;55.20;;;;;;4963122;29;20469;-80
2021/08/18 10:50:44;;;;;;;4.20;3.60;;;22.10;54.70;;;;;;4959311;28;20533;-81
2021/08/18 10:53:35;;;;;;;5.13;4.00;;;22.20;53.90;;;;;;4958948;29;21004;-81
2021/08/18 10:56:43;;;;;;;5.60;4.10;;;22.10;53.90;;;;;;4952554;29;20516;-78
2021/08/18 10:59:44;;;;;;;4.33;3.80;;;21.70;55.30;;;;;;4958870;29;20465;-80
2021/08/18 11:02:31;;;;;;;4.90;3.40;;;21.10;58.20;;;;;;4961905;29;20480;-80
2021/08/18 11:05:13;;;;;;;4.00;3.50;;;21.10;59.60;;;;;;4995604;28;20468;-79
2021/08/18 11:08:05;;;;;;;4.80;3.77;;;21.00;59.50;;;;;;5054426;28;20453;-79
2021/08/18 11:10:33;;;;;;;4.80;3.70;;;20.80;59.30;;;;;;5048936;28;20472;-79
2021/08/18 11:13:02;;;;;;;3.90;3.50;;;20.90;59.40;;;;;;5047763;28;20547;-80
2021/08/18 11:15:58;;;;;;;4.30;3.90;;;20.90;59.40;;;;;;5047934;28;20404;-79
2021/08/18 11:18:25;;;;;;;6.27;3.87;;;21.10;59.10;;;;;;5049573;28;20465;-78
2021/08/18 11:20:55;;;;;;;4.50;3.37;;;21.30;58.90;;;;;;5051461;28;20417;-78
2021/08/18 11:23:28;;;;;;;5.60;2.90;;;21.50;57.80;;;;;;5052673;28;20491;-78
2021/08/18 11:26:05;;;;;;;3.23;2.50;;;21.50;57.80;;;;;;5049355;28;20501;-79
2021/08/18 11:28:35;;;;;;;2.50;2.30;;;21.00;59.50;;;;;;5048786;28;21120;-80
2021/08/18 11:31:08;;;;;;;2.53;2.03;;;21.10;58.80;;;;;;5045597;28;20583;-80
2021/08/18 11:33:36;;;;;;;3.27;2.30;;;21.30;57.70;;;;;;5044322;28;20528;-79
2021/08/18 11:36:14;;;;;;;2.20;1.80;;;21.50;56.20;;;;;;5045785;28;20450;-79
2021/08/18 11:38:41;;;;;;;2.77;1.70;;;21.50;56.50;;;;;;5046633;28;20461;-79
2021/08/18 11:41:08;;;;;;;2.10;1.57;;;21.40;54.30;;;;;;5052263;28;20454;-80
2021/08/18 11:43:43;;;;;;;1.60;1.50;;;21.40;55.70;;;;;;5045644;28;20448;-80
2021/08/18 11:46:11;;;;;;;1.63;1.53;;;21.40;55.10;;;;;;5045228;28;20493;-79
2021/08/18 11:48:41;;;;;;;1.80;1.70;;;21.40;53.90;;;;;;5042177;28;20424;-78
2021/08/18 11:51:19;;;;;;;3.23;2.10;;;21.50;54.10;;;;;;5041563;28;20847;-80
2021/08/18 11:53:54;;;;;;;2.10;1.80;;;21.80;53.60;;;;;;5038452;28;20485;-81
2021/08/18 11:56:26;;;;;;;3.23;1.97;;;22.00;53.00;;;;;;5038829;28;20516;-79
2021/08/18 11:58:57;;;;;;;3.43;2.37;;;21.90;53.20;;;;;;5038468;28;20566;-80
2021/08/18 12:01:24;;;;;;;5.03;2.40;;;21.60;54.50;;;;;;5038840;28;20524;-80
2021/08/18 12:03:52;;;;;;;5.13;2.03;;;21.40;55.50;;;;;;5040711;28;20836;-80
2021/08/18 12:06:30;;;;;;;1.83;1.67;;;21.20;56.40;;;;;;5046600;28;20516;-79
2021/08/18 12:08:57;;;;;;;2.43;1.87;;;20.90;57.70;;;;;;5040741;28;20691;-79
2021/08/18 12:11:33;;;;;;;3.40;2.20;;;21.20;57.20;;;;;;5038224;28;20465;-79
2021/08/18 12:14:12;;;;;;;2.60;2.40;;;21.20;56.90;;;;;;5038454;28;20468;-79
2021/08/18 12:16:40;;;;;;;2.20;2.00;;;21.30;56.60;;;;;;5038955;28;20457;-79
2021/08/18 12:19:19;;;;;;;3.33;2.33;;;21.40;55.90;;;;;;5049112;28;20429;-79
2021/08/18 12:21:53;;;;;;;2.40;2.20;;;21.50;55.80;;;;;;5049382;28;21044;-80
2021/08/18 12:24:20;;;;;;;3.00;2.47;;;21.60;55.30;;;;;;5050869;28;20484;-79
2021/08/18 12:26:56;;;;;;;3.77;3.43;;;21.60;55.20;;;;;;5048051;28;20464;-79
2021/08/18 12:29:23;;;;;;;5.60;3.10;;;21.30;57.00;;;;;;5049372;28;20491;-79
2021/08/18 12:32:10;;;;;;;4.07;3.60;;;21.00;59.50;;;;;;5049526;28;20478;-80
2021/08/18 12:34:40;;;;;;;2.40;2.20;;;20.50;65.20;;;;;;5056341;28;20420;-79
2021/08/18 12:37:11;;;;;;;3.50;2.10;;;20.20;68.00;;;;;;5052541;28;20445;-82
2021/08/18 12:39:41;;;;;;;2.37;2.17;;;19.90;71.90;;;;;;5056883;28;20455;-80
2021/08/18 12:42:10;;;;;;;2.00;1.90;;;19.80;76.40;;;;;;5052717;28;20539;-81
2021/08/18 12:44:39;;;;;;;2.10;1.90;;;20.10;76.40;;;;;;5050109;28;20505;-78
2021/08/18 12:47:11;;;;;;;2.03;1.80;;;20.40;70.40;;;;;;5048921;28;20488;-82